Time;durP1;ratioP1;P1;durP2;ratioP2;P2;SDS_P1;SDS_P2;PMS_P1;PMS_P2;Temp;Humidity;BMP_temperature;BMP_pressure;BME280_temperature;BME280_humidity;BME280_pressure;Samples;Min_cycle;Max_cycle;Signal;HPM_P1;HPM_P2
2023/02/09 00:02:19;;;;;;;33.20;11.20;;;;;;;-8.59;100.00;103558.67;109921;1247;71575;-81
2023/02/09 00:05:08;;;;;;;24.80;11.80;;;;;;;-8.49;100.00;103560.61;109864;1249;62558;-82
2023/02/09 00:07:57;;;;;;;39.70;15.40;;;;;;;-8.40;100.00;103560.81;109842;1246;60216;-81
2023/02/09 00:10:47;;;;;;;24.10;11.20;;;;;;;-8.47;100.00;103555.00;109916;1247;74640;-81
2023/02/09 00:13:36;;;;;;;22.40;9.30;;;;;;;-8.46;100.00;103555.15;109860;1246;67762;-81
2023/02/09 00:16:25;;;;;;;23.90;9.90;;;;;;;-8.43;100.00;103560.33;109860;1245;73232;-81
2023/02/09 00:19:14;;;;;;;24.50;9.40;;;;;;;-8.46;100.00;103563.61;109736;1247;218447;-81
2023/02/09 00:22:03;;;;;;;25.60;9.70;;;;;;;-8.51;100.00;103565.13;109878;1247;59373;-81
2023/02/09 00:24:52;;;;;;;26.20;9.70;;;;;;;-8.55;100.00;103558.61;109683;1250;72962;-82
2023/02/09 00:27:43;;;;;;;24.10;9.90;;;;;;;-8.57;100.00;103554.85;109892;1247;66756;-82
2023/02/09 00:30:31;;;;;;;23.60;9.80;;;;;;;-8.64;100.00;103547.22;109953;1245;73062;-81
2023/02/09 00:33:20;;;;;;;21.60;8.50;;;;;;;-8.70;100.00;103544.35;109925;1246;59811;-82
2023/02/09 00:36:11;;;;;;;23.30;9.30;;;;;;;-8.78;100.00;103540.84;109865;1246;59048;-82
2023/02/09 00:39:00;;;;;;;15.10;7.60;;;;;;;-8.88;100.00;103538.36;109850;1246;72723;-82
2023/02/09 00:42:07;;;;;;;24.50;8.40;;;;;;;-8.96;100.00;103532.58;109846;1246;69106;-81
2023/02/09 00:44:56;;;;;;;15.50;7.10;;;;;;;-9.04;100.00;103529.80;109705;1247;73482;-82
2023/02/09 00:47:45;;;;;;;21.20;6.60;;;;;;;-9.09;100.00;103529.34;109843;1250;62516;-82
2023/02/09 00:50:34;;;;;;;19.30;9.20;;;;;;;-9.16;100.00;103527.02;109903;1247;60548;-81
2023/02/09 00:53:23;;;;;;;26.30;9.20;;;;;;;-9.25;100.00;103523.23;109884;1247;75477;-81
2023/02/09 00:56:12;;;;;;;19.20;7.70;;;;;;;-9.23;100.00;103526.48;109934;1246;66486;-81
2023/02/09 00:59:02;;;;;;;21.10;8.90;;;;;;;-9.19;100.00;103523.11;109860;1247;73869;-82
2023/02/09 01:01:51;;;;;;;24.00;8.20;;;;;;;-9.15;100.00;103519.36;109733;1247;61522;-82
2023/02/09 01:04:39;;;;;;;29.00;10.50;;;;;;;-9.12;100.00;103509.52;109946;1247;59724;-81
2023/02/09 01:07:29;;;;;;;24.20;9.70;;;;;;;-9.10;100.00;103506.07;109908;1246;74321;-82
2023/02/09 01:10:19;;;;;;;33.30;10.40;;;;;;;-9.08;100.00;103504.38;109935;1247;68639;-81
2023/02/09 01:13:08;;;;;;;25.20;9.90;;;;;;;-9.04;100.00;103498.89;109689;1247;70495;-82
2023/02/09 01:15:57;;;;;;;22.70;8.80;;;;;;;-9.04;100.00;103495.33;109885;1247;60026;-82
2023/02/09 01:18:47;;;;;;;22.40;7.80;;;;;;;-9.11;100.00;103492.68;109896;1246;60993;-82
2023/02/09 01:21:36;;;;;;;21.40;7.50;;;;;;;-9.21;100.00;103494.40;109868;1246;75875;-82
2023/02/09 01:24:25;;;;;;;19.30;8.30;;;;;;;-9.23;100.00;103491.02;109864;1249;69912;-82
2023/02/09 01:27:14;;;;;;;18.60;7.30;;;;;;;-9.28;100.00;103498.65;109862;1245;70718;-82
2023/02/09 01:30:03;;;;;;;22.90;9.40;;;;;;;-9.32;100.00;103493.55;109709;1246;60793;-81
2023/02/09 01:32:53;;;;;;;21.70;8.40;;;;;;;-9.35;100.00;103490.15;109867;1246;59591;-82
2023/02/09 01:35:42;;;;;;;24.20;9.50;;;;;;;-9.39;100.00;103487.56;109848;1250;74878;-83
2023/02/09 01:38:30;;;;;;;19.80;7.20;;;;;;;-9.44;100.00;103484.96;109865;1246;66638;-82
2023/02/09 01:41:19;;;;;;;18.90;8.80;;;;;;;-9.51;100.00;103483.52;109853;1247;70665;-81
2023/02/09 01:44:11;;;;;;;19.80;8.30;;;;;;;-9.56;100.00;103478.79;109848;1247;62520;-82
2023/02/09 01:47:00;;;;;;;15.30;5.80;;;;;;;-9.59;100.00;103472.62;109870;1246;60324;-82
2023/02/09 01:49:55;;;;;;;19.00;7.90;;;;;;;-9.65;100.00;103476.22;109938;1246;76011;-82
2023/02/09 01:52:44;;;;;;;19.70;8.40;;;;;;;-9.71;100.00;103475.27;109862;1246;69027;-82
2023/02/09 01:55:35;;;;;;;19.70;8.70;;;;;;;-9.76;100.00;103470.40;109719;1253;73115;-81
2023/02/09 01:58:23;;;;;;;17.00;7.80;;;;;;;-9.78;100.00;103473.52;109682;1245;62360;-82
2023/02/09 02:01:12;;;;;;;19.30;8.00;;;;;;;-9.81;100.00;103469.26;110003;1247;59829;-81
2023/02/09 02:04:01;;;;;;;22.40;9.00;;;;;;;-9.83;100.00;103466.50;109837;1245;74041;-82
2023/02/09 02:06:53;;;;;;;21.60;7.70;;;;;;;-9.83;100.00;103465.11;109957;1248;67106;-81
2023/02/09 02:09:42;;;;;;;19.90;7.60;;;;;;;-9.87;100.00;103465.10;109859;1246;73879;-82
2023/02/09 02:12:32;;;;;;;18.70;7.90;;;;;;;-9.88;100.00;103462.15;109838;1246;59168;-83
2023/02/09 02:16:00;;;;;;;19.30;7.60;;;;;;;-9.90;100.00;103465.80;109921;1245;60743;-81
2023/02/09 02:19:10;;;;;;;13.90;6.40;;;;;;;-9.91;100.00;103466.20;109293;1256;74897;-81
2023/02/09 02:22:15;;;;;;;27.20;8.00;;;;;;;-9.90;100.00;103465.96;109877;1246;68189;-82
2023/02/09 02:25:17;;;;;;;20.00;7.80;;;;;;;-10.00;100.00;103468.55;109622;1247;74187;-81
2023/02/09 02:28:26;;;;;;;19.50;8.50;;;;;;;-10.03;100.00;103463.90;109944;1247;59812;-82
2023/02/09 02:31:53;;;;;;;24.30;8.60;;;;;;;-10.14;100.00;103457.90;109906;1247;59343;-82
2023/02/09 02:34:45;;;;;;;20.60;8.90;;;;;;;-10.20;100.00;103460.65;109960;1247;74593;-82
2023/02/09 02:37:36;;;;;;;;;;;;;;;-10.24;100.00;103459.77;109923;1248;68946;-81
2023/02/09 02:41:00;;;;;;;20.80;8.60;;;;;;;-10.26;100.00;103462.48;109718;1247;72339;-82
2023/02/09 02:44:02;;;;;;;17.40;7.60;;;;;;;-10.25;100.00;103461.93;109826;1247;59672;-81
2023/02/09 02:46:56;;;;;;;19.10;7.30;;;;;;;-10.23;100.00;103460.09;109693;1248;59176;-82
2023/02/09 02:49:50;;;;;;;16.50;7.40;;;;;;;-10.24;100.00;103462.20;109725;1248;76423;-83
2023/02/09 02:52:39;;;;;;;13.60;6.60;;;;;;;-10.26;100.00;103464.46;109778;1249;69313;-82
2023/02/09 02:55:29;;;;;;;14.20;6.70;;;;;;;-10.29;100.00;103469.38;109664;1248;72666;-82
2023/02/09 02:58:18;;;;;;;21.10;8.90;;;;;;;-10.30;100.00;103465.36;109606;1247;62013;-82
2023/02/09 03:01:08;;;;;;;19.90;7.70;;;;;;;-10.32;100.00;103463.33;109731;1246;60493;-83
2023/02/09 03:03:57;;;;;;;16.20;7.10;;;;;;;-10.36;100.00;103464.59;109735;1246;73974;-82
2023/02/09 03:06:46;;;;;;;16.10;6.40;;;;;;;-10.34;100.00;103468.52;109801;1247;68914;-83
2023/02/09 03:09:34;;;;;;;17.60;7.60;;;;;;;-10.35;100.00;103468.76;109918;1246;72663;-83
2023/02/09 03:12:48;;;;;;;22.10;7.20;;;;;;;-10.36;100.00;103475.16;109874;1246;60653;-82
2023/02/09 03:15:43;;;;;;;17.00;6.20;;;;;;;-10.37;100.00;103473.44;109781;1249;59511;-81
2023/02/09 03:19:07;;;;;;;16.70;5.50;;;;;;;-10.36;100.00;103470.91;109936;1245;72751;-81
2023/02/09 03:22:03;;;;;;;16.50;7.90;;;;;;;-10.37;100.00;103469.89;109830;1252;68677;-81
2023/02/09 03:24:55;;;;;;;15.40;7.20;;;;;;;-10.36;100.00;103466.86;109710;1247;72580;-82
2023/02/09 03:27:58;;;;;;;21.70;8.40;;;;;;;-10.32;100.00;103469.17;109661;1247;62306;-82
2023/02/09 03:30:48;;;;;;;22.90;9.20;;;;;;;-10.31;100.00;103470.33;109928;1247;61537;-81
2023/02/09 03:33:37;;;;;;;15.90;7.60;;;;;;;-10.23;100.00;103472.95;109764;1246;73963;-82
2023/02/09 03:36:31;;;;;;;14.00;6.80;;;;;;;-10.15;100.00;103474.68;109730;1247;69501;-82
2023/02/09 03:39:20;;;;;;;17.60;6.80;;;;;;;-10.10;100.00;103477.98;109808;1247;72541;-82
2023/02/09 03:42:09;;;;;;;16.80;7.00;;;;;;;-10.12;100.00;103478.61;109872;1246;59307;-82
2023/02/09 03:44:57;;;;;;;13.10;7.30;;;;;;;-10.15;100.00;103483.19;109853;1245;60380;-82
2023/02/09 03:47:48;;;;;;;16.50;7.10;;;;;;;-10.18;100.00;103479.58;109904;1247;74989;-83
2023/02/09 03:50:37;;;;;;;27.60;7.60;;;;;;;-10.25;100.00;103480.27;109855;1246;69990;-82
2023/02/09 03:53:26;;;;;;;22.00;7.70;;;;;;;-10.31;100.00;103476.70;109818;1247;71594;-83
2023/02/09 03:56:15;;;;;;;16.90;7.10;;;;;;;-10.36;100.00;103476.59;109864;1248;61216;-83
2023/02/09 03:59:04;;;;;;;10.50;5.30;;;;;;;-10.42;100.00;103472.05;109985;1246;59883;-83
2023/02/09 04:01:55;;;;;;;13.30;6.40;;;;;;;-10.46;100.00;103471.03;109828;1248;75599;-83
2023/02/09 04:04:44;;;;;;;13.90;5.90;;;;;;;-10.52;100.00;103470.73;109895;1248;69260;-83
2023/02/09 04:07:33;;;;;;;16.60;7.20;;;;;;;-10.52;100.00;103472.13;109852;1246;72415;-82
2023/02/09 04:10:23;;;;;;;17.70;6.70;;;;;;;-10.53;100.00;103471.66;109929;1247;61367;-82
2023/02/09 04:13:12;;;;;;;18.20;8.00;;;;;;;-10.57;100.00;103467.61;109767;1246;61309;-83
2023/02/09 04:16:00;;;;;;;16.20;6.30;;;;;;;-10.60;100.00;103463.18;109919;1247;73583;-82
2023/02/09 04:18:49;;;;;;;17.20;8.10;;;;;;;-10.60;100.00;103460.52;109784;1247;67896;-83
2023/02/09 04:21:38;;;;;;;18.30;8.40;;;;;;;-10.60;100.00;103458.58;109801;1246;73375;-82
2023/02/09 04:24:27;;;;;;;17.60;6.70;;;;;;;-10.58;100.00;103459.56;109946;1248;59870;-83
2023/02/09 04:27:16;;;;;;;13.40;5.40;;;;;;;-10.62;100.00;103461.66;109821;1248;59685;-83
2023/02/09 04:30:06;;;;;;;12.60;5.80;;;;;;;-10.62;100.00;103458.50;109856;1247;75243;-82
2023/02/09 04:32:55;;;;;;;20.00;6.50;;;;;;;-10.63;100.00;103458.02;109944;1247;69968;-82
2023/02/09 04:35:44;;;;;;;16.00;5.60;;;;;;;-10.64;100.00;103453.14;109974;1248;72853;-82
2023/02/09 04:38:33;;;;;;;13.40;6.90;;;;;;;-10.65;100.00;103452.27;110063;1245;60402;-83
2023/02/09 04:41:22;;;;;;;15.80;6.20;;;;;;;-10.69;100.00;103448.23;109855;1247;59277;-83
2023/02/09 04:44:10;;;;;;;13.60;7.20;;;;;;;-10.70;100.00;103453.23;109950;1246;75139;-82
2023/02/09 04:46:59;;;;;;;17.20;7.60;;;;;;;-10.71;100.00;103450.45;109859;1244;70073;-83
2023/02/09 04:49:48;;;;;;;16.20;7.20;;;;;;;-10.70;100.00;103443.35;110044;1244;72629;-82
2023/02/09 04:52:37;;;;;;;15.20;6.90;;;;;;;-10.72;100.00;103443.95;109946;1248;60317;-81
2023/02/09 04:55:26;;;;;;;14.70;6.60;;;;;;;-10.72;100.00;103446.08;110001;1246;59768;-83
2023/02/09 05:01:24;;;;;;;16.30;7.90;;;;;;;-10.81;100.00;103441.52;109881;1247;70195;-82
2023/02/09 05:04:12;;;;;;;28.00;11.60;;;;;;;-10.92;100.00;103438.98;109836;1246;72629;-82
2023/02/09 05:07:09;;;;;;;18.50;8.00;;;;;;;-10.91;100.00;103442.69;109875;1247;61635;-82
2023/02/09 05:09:57;;;;;;;18.10;6.50;;;;;;;-10.95;100.00;103443.71;109891;1247;59104;-82
2023/02/09 05:12:48;;;;;;;17.80;6.10;;;;;;;-10.95;100.00;103441.78;109727;1247;75106;-82
2023/02/09 05:15:36;;;;;;;20.90;7.70;;;;;;;-10.91;100.00;103439.48;109807;1248;69160;-81
2023/02/09 05:18:25;;;;;;;16.60;6.80;;;;;;;-10.90;100.00;103439.81;109879;1245;72901;-83
2023/02/09 05:21:14;;;;;;;13.90;6.20;;;;;;;-10.96;100.00;103438.81;109797;1248;61655;-83
2023/02/09 05:24:03;;;;;;;18.00;7.40;;;;;;;-10.97;100.00;103434.48;109947;1246;59053;-82
2023/02/09 05:26:52;;;;;;;16.40;5.80;;;;;;;-10.98;100.00;103433.98;109841;1247;72457;-82
2023/02/09 05:29:41;;;;;;;14.60;6.70;;;;;;;-10.95;100.00;103434.53;109745;1248;68730;-83
2023/02/09 05:32:29;;;;;;;12.70;6.90;;;;;;;-10.88;100.00;103436.57;109825;1247;72761;-81
2023/02/09 05:35:18;;;;;;;14.10;6.90;;;;;;;-10.90;100.00;103433.29;109758;1245;61438;-82
2023/02/09 05:38:07;;;;;;;16.10;7.10;;;;;;;-10.88;100.00;103435.86;109844;1248;59232;-81
2023/02/09 05:40:56;;;;;;;19.30;6.40;;;;;;;-10.83;100.00;103430.86;109629;1247;74835;-82
2023/02/09 05:43:45;;;;;;;31.70;12.40;;;;;;;-10.77;100.00;103430.08;109588;1248;68424;-82
2023/02/09 05:46:33;;;;;;;52.80;21.80;;;;;;;-10.72;100.00;103427.73;109800;1248;73062;-81
2023/02/09 05:49:22;;;;;;;25.40;12.30;;;;;;;-10.66;100.00;103427.51;109961;1248;61704;-82
2023/02/09 05:52:11;;;;;;;18.20;7.70;;;;;;;-10.59;100.00;103425.59;109734;1247;59409;-81
2023/02/09 05:55:00;;;;;;;15.90;6.30;;;;;;;-10.52;100.00;103424.55;109784;1247;73695;-81
2023/02/09 05:57:49;;;;;;;14.40;6.80;;;;;;;-10.42;100.00;103425.69;109956;1244;66951;-82
2023/02/09 06:00:39;;;;;;;17.40;7.30;;;;;;;-10.25;100.00;103417.84;109850;1246;72924;-81
2023/02/09 06:03:27;;;;;;;17.00;6.00;;;;;;;-10.09;100.00;103417.11;109806;1247;60497;-82
2023/02/09 06:06:16;;;;;;;22.50;8.60;;;;;;;-10.00;100.00;103422.16;109692;1246;60822;-82
2023/02/09 06:09:05;;;;;;;30.00;12.70;;;;;;;-9.87;100.00;103421.54;109846;1245;74959;-81
2023/02/09 06:11:55;;;;;;;38.00;15.50;;;;;;;-9.72;100.00;103417.63;109937;1244;68281;-82
2023/02/09 06:14:44;;;;;;;21.90;9.80;;;;;;;-9.51;100.00;103415.20;109811;1247;73422;-82
2023/02/09 06:17:35;;;;;;;22.60;9.40;;;;;;;-9.27;100.00;103413.15;109867;1246;60766;-82
2023/02/09 06:20:24;;;;;;;20.40;9.40;;;;;;;-9.05;100.00;103411.30;109611;1247;60453;-81
2023/02/09 06:23:13;;;;;;;21.20;9.60;;;;;;;-8.82;100.00;103405.35;109911;1244;75267;-81
2023/02/09 06:26:12;;;;;;;23.10;10.40;;;;;;;-8.62;100.00;103402.18;109818;1246;69216;-82
2023/02/09 06:29:01;;;;;;;24.30;9.90;;;;;;;-8.38;100.00;103396.11;109753;1247;70737;-81
2023/02/09 06:31:50;;;;;;;24.30;10.90;;;;;;;-8.16;100.00;103400.73;109755;1246;60033;-82
2023/02/09 06:34:39;;;;;;;31.00;13.20;;;;;;;-7.97;100.00;103394.52;109711;1246;60110;-83
2023/02/09 06:37:27;;;;;;;27.40;11.50;;;;;;;-7.77;100.00;103394.83;109909;1246;76819;-82
2023/02/09 06:40:16;;;;;;;24.30;10.90;;;;;;;-7.55;100.00;103392.86;110053;1244;68646;-82
2023/02/09 06:43:05;;;;;;;32.90;12.10;;;;;;;-7.32;100.00;103395.61;109945;1246;73040;-82
2023/02/09 06:45:54;;;;;;;29.90;12.40;;;;;;;-7.19;100.00;103397.34;109617;1246;61086;-83
2023/02/09 06:48:43;;;;;;;25.10;10.90;;;;;;;-7.04;100.00;103399.09;109902;1245;59778;-84
2023/02/09 06:51:32;;;;;;;30.50;12.60;;;;;;;-6.89;100.00;103397.86;109917;1246;73622;-82
2023/02/09 06:54:21;;;;;;;35.20;13.50;;;;;;;-6.71;100.00;103397.80;110047;1245;69798;-84
2023/02/09 06:57:10;;;;;;;30.70;12.40;;;;;;;-6.51;100.00;103400.31;109806;1246;72531;-82
2023/02/09 06:59:59;;;;;;;26.80;10.20;;;;;;;-6.34;100.00;103389.48;109914;1245;60478;-82
2023/02/09 07:02:48;;;;;;;23.70;10.50;;;;;;;-6.13;100.00;103388.52;109973;1246;60492;-83
2023/02/09 07:05:37;;;;;;;25.70;11.00;;;;;;;-5.91;100.00;103394.71;109688;1246;75496;-84
2023/02/09 07:08:25;;;;;;;27.70;11.90;;;;;;;-5.73;100.00;103395.64;109844;1246;69945;-84
2023/02/09 07:11:17;;;;;;;28.00;12.20;;;;;;;-5.56;100.00;103393.48;109840;1246;71962;-84
2023/02/09 07:14:06;;;;;;;26.50;11.50;;;;;;;-5.44;100.00;103388.41;109874;1246;60229;-84
2023/02/09 07:16:55;;;;;;;23.30;10.70;;;;;;;-5.31;100.00;103387.57;109734;1246;59044;-84
2023/02/09 07:19:44;;;;;;;27.10;12.00;;;;;;;-5.14;100.00;103380.91;109808;1247;74551;-84
2023/02/09 07:22:32;;;;;;;26.20;11.50;;;;;;;-4.96;100.00;103380.03;109789;1246;68229;-84
2023/02/09 07:25:21;;;;;;;33.20;11.60;;;;;;;-4.79;100.00;103381.31;109976;1246;70688;-84
2023/02/09 07:28:10;;;;;;;27.00;11.40;;;;;;;-4.67;100.00;103378.77;109867;1246;62075;-84
2023/02/09 07:31:04;;;;;;;32.60;12.20;;;;;;;-4.53;100.00;103373.88;109941;1246;60538;-84
2023/02/09 07:33:54;;;;;;;28.10;11.40;;;;;;;-4.44;100.00;103370.14;109789;1247;75876;-84
2023/02/09 07:36:44;;;;;;;32.60;12.20;;;;;;;-4.28;100.00;103370.32;110002;1245;69284;-84
2023/02/09 07:39:35;;;;;;;35.00;13.90;;;;;;;-4.13;100.00;103372.21;109887;1246;72549;-85
2023/02/09 07:42:25;;;;;;;31.60;14.00;;;;;;;-3.99;100.00;103370.66;109773;1247;61081;-83
2023/02/09 07:45:19;;;;;;;30.10;13.70;;;;;;;-3.82;100.00;103365.14;109859;1246;60035;-84
2023/02/09 07:48:09;;;;;;;41.10;15.00;;;;;;;-3.67;100.00;103361.18;109953;1245;73841;-84
2023/02/09 07:50:58;;;;;;;37.80;14.80;;;;;;;-3.55;100.00;103362.09;109815;1245;68464;-83
2023/02/09 07:53:46;;;;;;;35.40;15.90;;;;;;;-3.39;100.00;103358.73;109834;1245;73104;-84
2023/02/09 07:56:35;;;;;;;33.10;14.70;;;;;;;-3.19;100.00;103355.24;109815;1246;59660;-84
2023/02/09 07:59:24;;;;;;;32.50;12.90;;;;;;;-2.94;100.00;103352.61;109853;1246;59085;-84
2023/02/09 08:02:17;;;;;;;32.10;14.20;;;;;;;-2.77;100.00;103353.64;110026;1246;74499;-83
2023/02/09 08:05:13;;;;;;;25.60;11.60;;;;;;;-2.63;100.00;103347.48;109958;1246;68858;-83
2023/02/09 08:08:03;;;;;;;25.00;12.70;;;;;;;-2.49;100.00;103346.20;109755;1245;73067;-83
2023/02/09 08:10:52;;;;;;;27.80;11.40;;;;;;;-2.29;100.00;103345.53;109921;1245;59226;-83
2023/02/09 08:13:41;;;;;;;29.60;11.70;;;;;;;-2.02;100.00;103343.36;109744;1244;60375;-84
2023/02/09 08:16:31;;;;;;;26.90;11.10;;;;;;;-1.86;100.00;103347.03;109767;1246;76212;-84
2023/02/09 08:19:21;;;;;;;28.70;11.20;;;;;;;-1.67;100.00;103349.58;109890;1246;69104;-83
2023/02/09 08:22:10;;;;;;;22.80;11.70;;;;;;;-1.51;100.00;103347.17;109731;1244;72366;-84
2023/02/09 08:24:59;;;;;;;31.90;11.80;;;;;;;-1.43;100.00;103349.71;109927;1245;62877;-84
2023/02/09 08:27:47;;;;;;;28.10;12.00;;;;;;;-1.38;100.00;103349.58;109993;1245;59615;-84
2023/02/09 08:30:36;;;;;;;24.00;10.50;;;;;;;-1.20;100.00;103344.86;109938;1246;74978;-83
2023/02/09 08:33:27;;;;;;;29.20;12.10;;;;;;;-1.07;100.00;103343.98;109763;1246;69096;-84
2023/02/09 08:36:17;;;;;;;25.90;11.20;;;;;;;-0.96;100.00;103344.63;109870;1246;71996;-85
2023/02/09 08:39:06;;;;;;;29.30;14.10;;;;;;;-0.82;100.00;103344.33;110026;1245;60278;-85
2023/02/09 08:41:55;;;;;;;56.70;23.00;;;;;;;-0.78;100.00;103346.33;109671;1246;60697;-85
2023/02/09 08:44:44;;;;;;;29.10;12.30;;;;;;;-0.78;100.00;103348.08;110056;1246;75016;-85
2023/02/09 08:47:32;;;;;;;27.60;11.80;;;;;;;-0.69;100.00;103348.52;109910;1246;69546;-86
2023/02/09 08:50:21;;;;;;;33.30;11.80;;;;;;;-0.60;100.00;103340.28;109829;1246;73549;-86
2023/02/09 08:53:10;;;;;;;23.10;10.50;;;;;;;-0.50;100.00;103340.30;109894;1246;60494;-87
2023/02/09 08:55:59;;;;;;;28.40;12.10;;;;;;;-0.39;100.00;103340.05;110069;1246;58919;-86
2023/02/09 08:58:48;;;;;;;29.10;11.80;;;;;;;-0.32;100.00;103340.27;109914;1246;75751;-86
2023/02/09 09:01:39;;;;;;;28.70;11.60;;;;;;;-0.33;100.00;103334.27;109867;1246;66845;-86
2023/02/09 09:04:28;;;;;;;26.60;11.80;;;;;;;-0.15;100.00;103333.92;109997;1246;74094;-85
2023/02/09 09:07:17;;;;;;;28.20;12.10;;;;;;;0.08;100.00;103330.42;109901;1245;61361;-86
2023/02/09 09:10:09;;;;;;;26.80;11.20;;;;;;;0.17;100.00;103323.82;109833;1245;60966;-85
2023/02/09 09:12:58;;;;;;;27.60;11.70;;;;;;;0.33;100.00;103321.48;109910;1246;74527;-85
2023/02/09 09:15:47;;;;;;;26.30;12.30;;;;;;;0.39;100.00;103318.28;109927;1245;69010;-86
2023/02/09 09:18:37;;;;;;;29.30;12.90;;;;;;;0.40;100.00;103303.64;109861;1246;73382;-85
2023/02/09 09:21:25;;;;;;;28.80;11.50;;;;;;;0.50;100.00;103305.57;109943;1246;60592;-85
2023/02/09 09:24:15;;;;;;;35.00;14.10;;;;;;;0.58;100.00;103309.00;109948;1245;59450;-86
2023/02/09 09:27:03;;;;;;;29.30;12.60;;;;;;;0.59;100.00;103302.98;109940;1246;73810;-86
2023/02/09 09:29:52;;;;;;;28.60;12.00;;;;;;;0.53;100.00;103297.57;109899;1246;67825;-86
2023/02/09 09:32:41;;;;;;;29.20;12.30;;;;;;;0.56;100.00;103292.10;109909;1246;72276;-86
2023/02/09 09:35:31;;;;;;;28.00;13.30;;;;;;;0.52;100.00;103291.77;109898;1246;58995;-85
2023/02/09 09:38:20;;;;;;;28.60;12.20;;;;;;;0.51;100.00;103292.25;109918;1244;61518;-86
2023/02/09 09:41:38;;;;;;;27.90;12.80;;;;;;;0.49;100.00;103288.68;110102;1244;74490;-86
2023/02/09 09:44:39;;;;;;;30.20;14.30;;;;;;;0.51;100.00;103288.14;109826;1246;68920;-86
2023/02/09 09:47:35;;;;;;;34.50;14.50;;;;;;;0.52;100.00;103277.23;109697;1246;72679;-85
2023/02/09 09:50:26;;;;;;;28.40;13.40;;;;;;;0.52;100.00;103274.58;109893;1246;59437;-86
2023/02/09 09:53:31;;;;;;;30.60;13.90;;;;;;;0.54;100.00;103273.83;109899;1246;60339;-85
2023/02/09 09:56:21;;;;;;;28.00;12.10;;;;;;;0.62;100.00;103267.71;109994;1246;75180;-85
2023/02/09 09:59:18;;;;;;;26.80;12.60;;;;;;;0.73;100.00;103262.48;109844;1246;69654;-86
2023/02/09 10:02:33;;;;;;;25.30;11.30;;;;;;;0.84;100.00;103259.66;109956;1246;72600;-85
2023/02/09 10:05:27;;;;;;;32.30;13.60;;;;;;;0.89;100.00;103253.27;109946;1246;60174;-85
2023/02/09 10:08:19;;;;;;;30.60;12.90;;;;;;;0.86;100.00;103248.13;109866;1246;60060;-85
2023/02/09 10:11:13;;;;;;;33.50;12.90;;;;;;;0.82;100.00;103242.26;109876;1245;73999;-85
2023/02/09 10:14:02;;;;;;;27.60;12.80;;;;;;;0.91;100.00;103230.61;109876;1245;69606;-85
2023/02/09 10:16:51;;;;;;;26.10;11.70;;;;;;;0.94;100.00;103225.68;109978;1244;72954;-85
2023/02/09 10:19:39;;;;;;;37.30;18.80;;;;;;;1.05;100.00;103215.99;109859;1245;59010;-85
2023/02/09 10:22:29;;;;;;;120.10;49.10;;;;;;;1.19;100.00;103208.78;109911;1245;59062;-85
2023/02/09 10:25:48;;;;;;;153.30;66.50;;;;;;;1.30;100.00;103199.08;109841;1246;75007;-85
2023/02/09 10:28:46;;;;;;;46.90;27.10;;;;;;;1.43;100.00;103192.92;110017;1244;68737;-85
2023/02/09 10:31:43;;;;;;;37.20;18.30;;;;;;;1.54;100.00;103190.90;109846;1246;73473;-86
2023/02/09 10:34:41;;;;;;;30.20;11.80;;;;;;;1.51;100.00;103192.31;109842;1245;59062;-85
2023/02/09 10:37:33;;;;;;;23.00;10.20;;;;;;;1.42;100.00;103188.20;109826;1246;60208;-85
2023/02/09 10:40:27;;;;;;;25.70;12.00;;;;;;;1.36;100.00;103176.55;110023;1246;72449;-85
2023/02/09 10:43:19;;;;;;;24.40;9.90;;;;;;;1.43;100.00;103168.65;109858;1245;67525;-85
2023/02/09 10:46:15;;;;;;;21.60;9.70;;;;;;;1.67;100.00;103162.66;109959;1246;73007;-86
2023/02/09 10:49:24;;;;;;;22.70;10.20;;;;;;;1.74;100.00;103156.42;109771;1245;59149;-86
2023/02/09 10:52:14;;;;;;;22.40;9.60;;;;;;;1.89;100.00;103148.77;109877;1246;59076;-86
2023/02/09 10:55:29;;;;;;;22.40;10.00;;;;;;;1.87;99.93;103149.92;109968;1246;74284;-87
2023/02/09 10:58:23;;;;;;;23.40;9.80;;;;;;;2.00;98.46;103146.40;109928;1245;66560;-86
2023/02/09 11:01:15;;;;;;;20.20;9.40;;;;;;;2.07;95.55;103141.48;109754;1245;70929;-84
2023/02/09 11:04:17;;;;;;;19.20;8.80;;;;;;;2.16;94.12;103136.98;109680;1245;59701;-86
2023/02/09 11:07:13;;;;;;;25.30;10.10;;;;;;;2.30;94.64;103126.95;109925;1245;60738;-85
2023/02/09 11:10:04;;;;;;;18.90;8.80;;;;;;;2.41;93.47;103125.61;109871;1245;75171;-86
2023/02/09 11:12:52;;;;;;;18.00;8.10;;;;;;;2.45;89.78;103119.60;109998;1244;69432;-88
2023/02/09 11:15:45;;;;;;;16.60;6.50;;;;;;;2.44;85.70;103112.02;109825;1246;73458;-88
2023/02/09 11:18:35;;;;;;;21.30;7.20;;;;;;;2.40;84.83;103108.66;109679;1246;58975;-89
2023/02/09 11:21:39;;;;;;;15.50;7.20;;;;;;;2.48;81.54;103111.43;109831;1246;61591;-88
2023/02/09 11:25:02;;;;;;;18.50;8.20;;;;;;;2.45;75.75;103107.04;109905;1246;75736;-89
2023/02/09 11:28:12;;;;;;;10.00;4.00;;;;;;;2.33;73.04;103106.27;109974;1246;68442;-89
2023/02/09 11:31:27;;;;;;;7.80;3.80;;;;;;;2.36;69.15;103097.40;109966;1244;73878;-90
2023/02/09 11:35:05;;;;;;;9.10;3.30;;;;;;;2.34;68.05;103092.84;109852;1245;59557;-88
2023/02/09 11:38:02;;;;;;;11.40;5.30;;;;;;;2.47;68.88;103087.04;109518;1246;61625;-89
2023/02/09 11:40:52;;;;;;;8.60;4.30;;;;;;;2.54;68.94;103084.27;109645;1244;74289;-90
2023/02/09 11:43:41;;;;;;;14.20;6.00;;;;;;;2.55;68.11;103080.09;109791;1245;67854;-90
2023/02/09 11:46:37;;;;;;;17.90;7.70;;;;;;;2.46;67.43;103074.86;109744;1246;73157;-90
2023/02/09 11:49:25;;;;;;;18.30;7.00;;;;;;;2.37;68.90;103078.59;109588;1246;59474;-91
2023/02/09 11:52:19;;;;;;;14.70;7.30;;;;;;;2.29;70.41;103078.90;109753;1245;59258;-90
2023/02/09 11:55:21;;;;;;;15.40;6.30;;;;;;;2.30;71.30;103074.20;109738;1245;74851;-90
2023/02/09 11:58:24;;;;;;;23.50;8.10;;;;;;;2.34;71.97;103071.36;109843;1247;66673;-91
2023/02/09 12:01:40;;;;;;;16.40;7.30;;;;;;;2.34;72.80;103067.48;109810;1246;71450;-92
2023/02/09 12:04:48;;;;;;;19.70;8.40;;;;;;;2.34;72.31;103068.77;109723;1246;59959;-91
2023/02/09 12:07:42;;;;;;;14.20;5.60;;;;;;;2.38;73.02;103066.89;109752;1246;59989;-90
2023/02/09 12:10:40;;;;;;;13.00;5.70;;;;;;;2.48;73.02;103064.40;109784;1248;75201;-90
2023/02/09 12:13:33;;;;;;;16.30;6.60;;;;;;;2.58;70.88;103057.84;109814;1246;68082;-90
2023/02/09 12:16:30;;;;;;;19.10;7.60;;;;;;;2.68;70.41;103057.71;109763;1245;70273;-90
2023/02/09 12:19:31;;;;;;;14.20;6.50;;;;;;;2.77;71.32;103057.08;109672;1246;211320;-90
2023/02/09 12:22:32;;;;;;;16.00;7.50;;;;;;;2.79;70.07;103054.81;109737;1246;59631;-90
2023/02/09 12:25:44;;;;;;;149.90;66.60;;;;;;;2.85;70.21;103050.04;109934;1246;72496;-91
2023/02/09 12:28:32;;;;;;;20.20;9.50;;;;;;;2.93;69.01;103047.20;109720;1246;69071;-90
2023/02/09 12:31:23;;;;;;;157.30;64.70;;;;;;;2.94;69.78;103046.92;109834;1244;73677;-90
2023/02/09 12:34:26;;;;;;;21.60;10.70;;;;;;;2.97;68.60;103047.27;109993;1245;61218;-92
2023/02/09 12:37:26;;;;;;;20.90;10.10;;;;;;;2.99;66.56;103048.38;109702;1246;59075;-90
2023/02/09 12:40:21;;;;;;;16.70;11.00;;;;;;;2.93;63.77;103046.34;109817;1246;75210;-91
2023/02/09 12:43:12;;;;;;;12.90;6.60;;;;;;;2.84;62.70;103050.40;109877;1246;67996;-91
2023/02/09 12:46:13;;;;;;;14.00;7.90;;;;;;;2.76;60.42;103043.25;109864;1246;70474;-91
2023/02/09 12:49:11;;;;;;;11.00;5.20;;;;;;;2.71;60.76;103045.63;109931;1246;60643;-91
2023/02/09 12:51:59;;;;;;;18.20;8.20;;;;;;;2.71;62.33;103045.09;109882;1246;59705;-91
2023/02/09 12:54:54;;;;;;;16.40;7.60;;;;;;;2.59;61.39;103046.36;109840;1246;74882;-92
2023/02/09 12:57:48;;;;;;;18.90;8.60;;;;;;;2.54;61.60;103045.23;109862;1246;69560;-90